Íslenskir flugvellir

Veldu flugvelli í þeirri röð sem þeir eiga að birtast og styddu á hnappinn

Uppfært síðast 26.10.2020 - kl. 22:15

SIGMET síðustu 6 klst.

Engin SIGMET skeyti bárust síðustu 6 klst.

Egilsstaðir

METAR síðustu 3 klst

TímiSkeyti
2020-10-26 22.00METAR BIEG 262200Z 00000KT 9999 SCT032 M00/M01 Q0999 R04/190195
2020-10-26 21.00METAR BIEG 262100Z 32003KT 9999 SCT033 BKN038 01/M00 Q0998 R04/190195
2020-10-26 20.00METAR BIEG 262000Z 15003KT 9999 SCT030 BKN040 M00/M01 Q0999 R04/190195

TAF

TAFBIEG2020-10-26 19.58Z26212136005KT 9999 SCT018 BKN024 TX02/2715Z TNM03/2706Z TEMPO 2621/2721 4000 -SN BR BKN008 OVC013 BECMG 2713/2715 01012KT

Allur vindur er réttvísandi bæði í Metar og frá sjálfvirkum veðurstöðvum




Aðrir tengdir vefir



Þetta vefsvæði byggir á Eplica